Terminal Aerodrome Forecast
Issued by NWS Grand Forks, ND

Home | Current Version | Previous Version | Graphics & Text | Print | Product List | Glossary On
Versions: 1 2 3 4 5 6 7 8 9 10 11 12 13 14 15 16 17 18 19 20
000
FTUS43 KFGF 231722
TAFGFK
TAF
KGFK 231722Z 2318/2418 19013G22KT P6SM BKN120
     FM232300 26013KT P6SM VCTS BKN035CB
     FM240100 29011KT P6SM SCT100
     FM241600 27013G18KT P6SM SCT200=

USA.gov is the U.S. government's official web portal to all federal, state and local government web resources and services.